sensor_id;sensor_type;location;lat;lon;timestamp;P1;durP1;ratioP1;P2;durP2;ratioP2
4391;SDS011;2210;51.938;8.488;2023-03-19T00:03:37;2.50;;;2.30;;
4391;SDS011;2210;51.938;8.488;2023-03-19T00:07:37;3.20;;;2.90;;
4391;SDS011;2210;51.938;8.488;2023-03-19T00:11:41;4.18;;;2.60;;
4391;SDS011;2210;51.938;8.488;2023-03-19T00:15:41;7.53;;;2.80;;
4391;SDS011;2210;51.938;8.488;2023-03-19T00:19:42;3.73;;;2.80;;
4391;SDS011;2210;51.938;8.488;2023-03-19T00:23:52;3.50;;;2.43;;
4391;SDS011;2210;51.938;8.488;2023-03-19T00:28:13;4.13;;;3.73;;
4391;SDS011;2210;51.938;8.488;2023-03-19T00:32:13;7.10;;;3.47;;
4391;SDS011;2210;51.938;8.488;2023-03-19T00:36:26;5.40;;;2.90;;
4391;SDS011;2210;51.938;8.488;2023-03-19T00:40:30;3.00;;;2.70;;
4391;SDS011;2210;51.938;8.488;2023-03-19T00:44:31;3.20;;;2.87;;
4391;SDS011;2210;51.938;8.488;2023-03-19T00:48:31;6.90;;;3.53;;
4391;SDS011;2210;51.938;8.488;2023-03-19T00:52:32;3.00;;;2.80;;
4391;SDS011;2210;51.938;8.488;2023-03-19T00:56:32;4.80;;;2.63;;
4391;SDS011;2210;51.938;8.488;2023-03-19T01:00:44;3.72;;;3.00;;
4391;SDS011;2210;51.938;8.488;2023-03-19T01:04:46;3.17;;;2.87;;
4391;SDS011;2210;51.938;8.488;2023-03-19T01:08:51;6.50;;;2.97;;
4391;SDS011;2210;51.938;8.488;2023-03-19T01:12:54;3.90;;;2.87;;
4391;SDS011;2210;51.938;8.488;2023-03-19T01:16:54;3.13;;;2.83;;
4391;SDS011;2210;51.938;8.488;2023-03-19T01:20:54;4.00;;;2.60;;
4391;SDS011;2210;51.938;8.488;2023-03-19T01:24:55;3.80;;;2.70;;
4391;SDS011;2210;51.938;8.488;2023-03-19T01:28:55;3.83;;;2.93;;
4391;SDS011;2210;51.938;8.488;2023-03-19T01:32:59;6.03;;;2.70;;
4391;SDS011;2210;51.938;8.488;2023-03-19T01:37:08;3.00;;;2.73;;
4391;SDS011;2210;51.938;8.488;2023-03-19T01:41:12;2.73;;;2.53;;
4391;SDS011;2210;51.938;8.488;2023-03-19T01:45:28;5.63;;;2.77;;
4391;SDS011;2210;51.938;8.488;2023-03-19T01:49:30;4.83;;;2.80;;
4391;SDS011;2210;51.938;8.488;2023-03-19T01:53:33;4.23;;;2.70;;
4391;SDS011;2210;51.938;8.488;2023-03-19T01:57:36;3.27;;;2.80;;
4391;SDS011;2210;51.938;8.488;2023-03-19T02:01:46;3.10;;;2.80;;
4391;SDS011;2210;51.938;8.488;2023-03-19T02:05:53;2.40;;;2.13;;
4391;SDS011;2210;51.938;8.488;2023-03-19T02:09:55;2.73;;;2.47;;
4391;SDS011;2210;51.938;8.488;2023-03-19T02:13:56;4.47;;;2.63;;
4391;SDS011;2210;51.938;8.488;2023-03-19T02:17:59;10.30;;;2.50;;
4391;SDS011;2210;51.938;8.488;2023-03-19T02:22:00;2.53;;;2.33;;
4391;SDS011;2210;51.938;8.488;2023-03-19T02:26:06;3.43;;;2.57;;
4391;SDS011;2210;51.938;8.488;2023-03-19T02:34:44;3.07;;;2.40;;
4391;SDS011;2210;51.938;8.488;2023-03-19T02:38:44;2.47;;;2.27;;
4391;SDS011;2210;51.938;8.488;2023-03-19T02:42:49;2.90;;;2.43;;
4391;SDS011;2210;51.938;8.488;2023-03-19T02:46:56;2.57;;;2.30;;
4391;SDS011;2210;51.938;8.488;2023-03-19T02:50:56;2.67;;;2.40;;
4391;SDS011;2210;51.938;8.488;2023-03-19T02:55:00;2.03;;;1.93;;
4391;SDS011;2210;51.938;8.488;2023-03-19T02:59:00;2.50;;;2.30;;
4391;SDS011;2210;51.938;8.488;2023-03-19T03:03:01;3.50;;;2.57;;
4391;SDS011;2210;51.938;8.488;2023-03-19T03:07:08;2.83;;;2.63;;
4391;SDS011;2210;51.938;8.488;2023-03-19T03:11:18;2.47;;;2.27;;
4391;SDS011;2210;51.938;8.488;2023-03-19T03:15:19;2.50;;;2.30;;
4391;SDS011;2210;51.938;8.488;2023-03-19T03:19:20;5.03;;;2.20;;
4391;SDS011;2210;51.938;8.488;2023-03-19T03:23:20;2.13;;;1.93;;
4391;SDS011;2210;51.938;8.488;2023-03-19T03:27:26;5.60;;;2.67;;
4391;SDS011;2210;51.938;8.488;2023-03-19T03:31:27;2.57;;;1.80;;
4391;SDS011;2210;51.938;8.488;2023-03-19T03:35:28;2.67;;;2.40;;
4391;SDS011;2210;51.938;8.488;2023-03-19T03:39:29;3.10;;;2.77;;
4391;SDS011;2210;51.938;8.488;2023-03-19T03:43:29;2.50;;;2.30;;
4391;SDS011;2210;51.938;8.488;2023-03-19T03:47:35;2.93;;;2.27;;
4391;SDS011;2210;51.938;8.488;2023-03-19T03:51:51;7.10;;;2.27;;
4391;SDS011;2210;51.938;8.488;2023-03-19T03:55:54;2.50;;;2.30;;
4391;SDS011;2210;51.938;8.488;2023-03-19T04:00:01;2.93;;;2.27;;
4391;SDS011;2210;51.938;8.488;2023-03-19T04:04:02;3.70;;;2.30;;
4391;SDS011;2210;51.938;8.488;2023-03-19T04:08:08;3.80;;;2.20;;
4391;SDS011;2210;51.938;8.488;2023-03-19T04:12:15;2.43;;;2.23;;
4391;SDS011;2210;51.938;8.488;2023-03-19T04:16:16;3.13;;;2.27;;
4391;SDS011;2210;51.938;8.488;2023-03-19T04:20:16;3.47;;;2.73;;
4391;SDS011;2210;51.938;8.488;2023-03-19T04:24:17;2.73;;;1.70;;
4391;SDS011;2210;51.938;8.488;2023-03-19T04:28:27;4.10;;;2.30;;
4391;SDS011;2210;51.938;8.488;2023-03-19T04:32:28;1.87;;;1.77;;
4391;SDS011;2210;51.938;8.488;2023-03-19T04:36:28;2.30;;;2.00;;
4391;SDS011;2210;51.938;8.488;2023-03-19T04:40:31;2.70;;;2.20;;
4391;SDS011;2210;51.938;8.488;2023-03-19T04:44:34;2.87;;;1.70;;
4391;SDS011;2210;51.938;8.488;2023-03-19T04:48:36;2.50;;;2.23;;
4391;SDS011;2210;51.938;8.488;2023-03-19T04:52:41;3.63;;;2.17;;
4391;SDS011;2210;51.938;8.488;2023-03-19T04:56:41;2.43;;;2.20;;
4391;SDS011;2210;51.938;8.488;2023-03-19T05:00:44;2.10;;;1.90;;
4391;SDS011;2210;51.938;8.488;2023-03-19T05:04:49;2.70;;;2.33;;
4391;SDS011;2210;51.938;8.488;2023-03-19T05:08:49;2.70;;;2.50;;
4391;SDS011;2210;51.938;8.488;2023-03-19T05:12:53;2.05;;;1.88;;
4391;SDS011;2210;51.938;8.488;2023-03-19T05:17:02;1.80;;;1.70;;
4391;SDS011;2210;51.938;8.488;2023-03-19T05:21:08;6.13;;;1.97;;
4391;SDS011;2210;51.938;8.488;2023-03-19T05:25:16;4.77;;;2.07;;
4391;SDS011;2210;51.938;8.488;2023-03-19T05:29:19;3.00;;;1.90;;
4391;SDS011;2210;51.938;8.488;2023-03-19T05:33:19;2.10;;;1.87;;
4391;SDS011;2210;51.938;8.488;2023-03-19T05:37:21;3.40;;;2.00;;
4391;SDS011;2210;51.938;8.488;2023-03-19T05:41:21;4.93;;;2.15;;
4391;SDS011;2210;51.938;8.488;2023-03-19T05:45:21;1.70;;;1.60;;
4391;SDS011;2210;51.938;8.488;2023-03-19T05:49:22;4.70;;;2.10;;
4391;SDS011;2210;51.938;8.488;2023-03-19T05:53:22;2.27;;;1.90;;
4391;SDS011;2210;51.938;8.488;2023-03-19T05:57:22;1.90;;;1.70;;
4391;SDS011;2210;51.938;8.488;2023-03-19T06:01:23;4.27;;;2.27;;
4391;SDS011;2210;51.938;8.488;2023-03-19T06:05:29;1.90;;;1.80;;
4391;SDS011;2210;51.938;8.488;2023-03-19T06:18:41;2.33;;;2.13;;
4391;SDS011;2210;51.938;8.488;2023-03-19T06:22:42;2.90;;;2.10;;
4391;SDS011;2210;51.938;8.488;2023-03-19T06:26:43;2.60;;;2.10;;
4391;SDS011;2210;51.938;8.488;2023-03-19T06:30:46;3.47;;;2.27;;
4391;SDS011;2210;51.938;8.488;2023-03-19T06:34:46;2.07;;;1.90;;
4391;SDS011;2210;51.938;8.488;2023-03-19T06:38:47;2.00;;;1.77;;
4391;SDS011;2210;51.938;8.488;2023-03-19T06:42:47;2.07;;;1.87;;
4391;SDS011;2210;51.938;8.488;2023-03-19T06:46:51;2.93;;;2.10;;
4391;SDS011;2210;51.938;8.488;2023-03-19T06:50:57;3.10;;;1.67;;
4391;SDS011;2210;51.938;8.488;2023-03-19T06:54:57;1.60;;;1.50;;
4391;SDS011;2210;51.938;8.488;2023-03-19T06:58:57;2.10;;;1.60;;
4391;SDS011;2210;51.938;8.488;2023-03-19T07:02:58;3.38;;;2.13;;
4391;SDS011;2210;51.938;8.488;2023-03-19T07:06:58;3.17;;;2.03;;
4391;SDS011;2210;51.938;8.488;2023-03-19T07:11:07;3.60;;;1.90;;
4391;SDS011;2210;51.938;8.488;2023-03-19T07:15:08;3.27;;;2.37;;
4391;SDS011;2210;51.938;8.488;2023-03-19T07:19:12;2.07;;;1.93;;
4391;SDS011;2210;51.938;8.488;2023-03-19T07:23:12;2.20;;;2.00;;
4391;SDS011;2210;51.938;8.488;2023-03-19T07:27:18;2.60;;;1.60;;
4391;SDS011;2210;51.938;8.488;2023-03-19T07:31:19;1.80;;;1.70;;
4391;SDS011;2210;51.938;8.488;2023-03-19T07:35:20;1.97;;;1.77;;
4391;SDS011;2210;51.938;8.488;2023-03-19T07:39:27;3.53;;;1.57;;
4391;SDS011;2210;51.938;8.488;2023-03-19T07:43:36;3.47;;;2.10;;
4391;SDS011;2210;51.938;8.488;2023-03-19T07:47:37;2.07;;;1.80;;
4391;SDS011;2210;51.938;8.488;2023-03-19T07:51:54;3.53;;;1.60;;
4391;SDS011;2210;51.938;8.488;2023-03-19T07:55:57;2.57;;;1.90;;
4391;SDS011;2210;51.938;8.488;2023-03-19T07:59:57;2.20;;;1.90;;
4391;SDS011;2210;51.938;8.488;2023-03-19T08:04:10;4.72;;;1.98;;
4391;SDS011;2210;51.938;8.488;2023-03-19T08:08:10;3.00;;;2.00;;
4391;SDS011;2210;51.938;8.488;2023-03-19T08:12:13;1.70;;;1.60;;
4391;SDS011;2210;51.938;8.488;2023-03-19T08:16:14;2.93;;;2.27;;
4391;SDS011;2210;51.938;8.488;2023-03-19T08:20:15;2.23;;;2.03;;
4391;SDS011;2210;51.938;8.488;2023-03-19T08:24:15;2.90;;;2.23;;
4391;SDS011;2210;51.938;8.488;2023-03-19T08:28:18;2.90;;;2.20;;
4391;SDS011;2210;51.938;8.488;2023-03-19T08:32:19;3.03;;;2.17;;
4391;SDS011;2210;51.938;8.488;2023-03-19T08:36:19;4.97;;;2.37;;
4391;SDS011;2210;51.938;8.488;2023-03-19T08:40:23;5.25;;;2.75;;
4391;SDS011;2210;51.938;8.488;2023-03-19T08:44:23;2.30;;;2.10;;
4391;SDS011;2210;51.938;8.488;2023-03-19T08:48:24;2.40;;;2.17;;
4391;SDS011;2210;51.938;8.488;2023-03-19T08:52:24;6.10;;;2.63;;
4391;SDS011;2210;51.938;8.488;2023-03-19T08:56:24;3.13;;;2.83;;
4391;SDS011;2210;51.938;8.488;2023-03-19T09:00:40;4.40;;;2.40;;
4391;SDS011;2210;51.938;8.488;2023-03-19T09:04:41;2.27;;;1.93;;
4391;SDS011;2210;51.938;8.488;2023-03-19T09:08:45;2.43;;;2.23;;
4391;SDS011;2210;51.938;8.488;2023-03-19T09:12:51;4.43;;;2.30;;
4391;SDS011;2210;51.938;8.488;2023-03-19T09:16:51;2.33;;;1.93;;
4391;SDS011;2210;51.938;8.488;2023-03-19T09:20:55;1.90;;;1.80;;
4391;SDS011;2210;51.938;8.488;2023-03-19T09:24:56;2.53;;;2.20;;
4391;SDS011;2210;51.938;8.488;2023-03-19T09:28:56;3.47;;;2.33;;
4391;SDS011;2210;51.938;8.488;2023-03-19T09:32:57;2.67;;;2.33;;
4391;SDS011;2210;51.938;8.488;2023-03-19T09:36:58;3.10;;;2.63;;
4391;SDS011;2210;51.938;8.488;2023-03-19T09:45:13;4.60;;;4.20;;
4391;SDS011;2210;51.938;8.488;2023-03-19T09:49:23;5.03;;;3.23;;
4391;SDS011;2210;51.938;8.488;2023-03-19T09:53:33;7.50;;;3.57;;
4391;SDS011;2210;51.938;8.488;2023-03-19T09:57:40;4.13;;;3.83;;
4391;SDS011;2210;51.938;8.488;2023-03-19T10:01:40;4.40;;;3.83;;
4391;SDS011;2210;51.938;8.488;2023-03-19T10:15:00;3.87;;;2.97;;
4391;SDS011;2210;51.938;8.488;2023-03-19T10:19:09;6.17;;;3.20;;
4391;SDS011;2210;51.938;8.488;2023-03-19T10:23:23;4.63;;;4.13;;
4391;SDS011;2210;51.938;8.488;2023-03-19T10:27:33;4.87;;;4.37;;
4391;SDS011;2210;51.938;8.488;2023-03-19T10:40:25;5.60;;;4.30;;
4391;SDS011;2210;51.938;8.488;2023-03-19T10:44:41;6.27;;;5.23;;
4391;SDS011;2210;51.938;8.488;2023-03-19T10:48:47;6.53;;;5.43;;
4391;SDS011;2210;51.938;8.488;2023-03-19T10:52:51;8.97;;;6.80;;
4391;SDS011;2210;51.938;8.488;2023-03-19T10:56:59;8.77;;;7.40;;
4391;SDS011;2210;51.938;8.488;2023-03-19T11:01:07;5.03;;;4.53;;
4391;SDS011;2210;51.938;8.488;2023-03-19T11:09:12;4.30;;;3.63;;
4391;SDS011;2210;51.938;8.488;2023-03-19T11:13:25;3.10;;;2.90;;
4391;SDS011;2210;51.938;8.488;2023-03-19T11:17:39;3.67;;;3.30;;
4391;SDS011;2210;51.938;8.488;2023-03-19T11:21:52;5.03;;;4.00;;
4391;SDS011;2210;51.938;8.488;2023-03-19T11:26:17;16.47;;;12.77;;
4391;SDS011;2210;51.938;8.488;2023-03-19T11:30:18;7.53;;;6.80;;
4391;SDS011;2210;51.938;8.488;2023-03-19T11:47:36;5.93;;;5.17;;
4391;SDS011;2210;51.938;8.488;2023-03-19T12:00:10;4.13;;;3.70;;
4391;SDS011;2210;51.938;8.488;2023-03-19T12:09:16;6.47;;;5.23;;
4391;SDS011;2210;51.938;8.488;2023-03-19T12:17:36;4.23;;;3.83;;
4391;SDS011;2210;51.938;8.488;2023-03-19T12:21:53;6.10;;;4.10;;
4391;SDS011;2210;51.938;8.488;2023-03-19T12:25:58;4.80;;;4.40;;
4391;SDS011;2210;51.938;8.488;2023-03-19T12:34:23;6.20;;;5.07;;
4391;SDS011;2210;51.938;8.488;2023-03-19T12:38:38;7.30;;;6.10;;
4391;SDS011;2210;51.938;8.488;2023-03-19T12:42:44;7.27;;;6.23;;
4391;SDS011;2210;51.938;8.488;2023-03-19T12:51:22;7.30;;;6.60;;
4391;SDS011;2210;51.938;8.488;2023-03-19T13:00:30;8.90;;;8.00;;
4391;SDS011;2210;51.938;8.488;2023-03-19T13:04:35;8.57;;;7.20;;
4391;SDS011;2210;51.938;8.488;2023-03-19T13:08:55;6.80;;;6.20;;
4391;SDS011;2210;51.938;8.488;2023-03-19T13:13:09;6.90;;;6.20;;
4391;SDS011;2210;51.938;8.488;2023-03-19T13:17:19;7.27;;;6.57;;
4391;SDS011;2210;51.938;8.488;2023-03-19T13:21:28;7.60;;;6.50;;
4391;SDS011;2210;51.938;8.488;2023-03-19T13:25:34;7.03;;;6.33;;
4391;SDS011;2210;51.938;8.488;2023-03-19T13:34:20;7.23;;;6.53;;
4391;SDS011;2210;51.938;8.488;2023-03-19T13:38:38;8.23;;;7.40;;
4391;SDS011;2210;51.938;8.488;2023-03-19T13:42:43;6.60;;;6.10;;
4391;SDS011;2210;51.938;8.488;2023-03-19T13:46:44;6.40;;;5.80;;
4391;SDS011;2210;51.938;8.488;2023-03-19T13:51:04;5.77;;;5.27;;
4391;SDS011;2210;51.938;8.488;2023-03-19T13:55:42;7.90;;;7.20;;
4391;SDS011;2210;51.938;8.488;2023-03-19T14:04:47;9.23;;;6.20;;
4391;SDS011;2210;51.938;8.488;2023-03-19T14:13:46;6.90;;;6.17;;
4391;SDS011;2210;51.938;8.488;2023-03-19T14:22:34;19.97;;;16.43;;
4391;SDS011;2210;51.938;8.488;2023-03-19T14:26:40;8.50;;;7.57;;
4391;SDS011;2210;51.938;8.488;2023-03-19T14:30:48;7.50;;;6.57;;
4391;SDS011;2210;51.938;8.488;2023-03-19T14:34:49;7.77;;;7.00;;
4391;SDS011;2210;51.938;8.488;2023-03-19T14:38:51;8.03;;;7.20;;
4391;SDS011;2210;51.938;8.488;2023-03-19T14:43:16;8.30;;;7.50;;
4391;SDS011;2210;51.938;8.488;2023-03-19T14:56:34;30.33;;;25.83;;
4391;SDS011;2210;51.938;8.488;2023-03-19T15:00:39;10.10;;;7.90;;
4391;SDS011;2210;51.938;8.488;2023-03-19T15:04:43;7.70;;;6.60;;
4391;SDS011;2210;51.938;8.488;2023-03-19T15:08:46;6.70;;;5.90;;
4391;SDS011;2210;51.938;8.488;2023-03-19T15:21:12;4.97;;;4.47;;
4391;SDS011;2210;51.938;8.488;2023-03-19T15:25:19;10.60;;;4.90;;
4391;SDS011;2210;51.938;8.488;2023-03-19T15:29:29;11.53;;;10.33;;
4391;SDS011;2210;51.938;8.488;2023-03-19T15:33:32;5.30;;;4.80;;
4391;SDS011;2210;51.938;8.488;2023-03-19T15:37:41;6.83;;;4.37;;
4391;SDS011;2210;51.938;8.488;2023-03-19T15:41:46;4.90;;;4.50;;
4391;SDS011;2210;51.938;8.488;2023-03-19T15:45:54;4.53;;;4.13;;
4391;SDS011;2210;51.938;8.488;2023-03-19T15:50:05;4.37;;;3.97;;
4391;SDS011;2210;51.938;8.488;2023-03-19T15:54:11;3.80;;;3.50;;
4391;SDS011;2210;51.938;8.488;2023-03-19T15:58:14;4.60;;;4.20;;
4391;SDS011;2210;51.938;8.488;2023-03-19T16:02:28;5.23;;;3.80;;
4391;SDS011;2210;51.938;8.488;2023-03-19T16:06:39;8.20;;;6.00;;
4391;SDS011;2210;51.938;8.488;2023-03-19T16:10:40;14.30;;;9.27;;
4391;SDS011;2210;51.938;8.488;2023-03-19T16:14:44;9.37;;;7.80;;
4391;SDS011;2210;51.938;8.488;2023-03-19T16:18:57;8.67;;;6.17;;
4391;SDS011;2210;51.938;8.488;2023-03-19T16:23:01;8.67;;;5.40;;
4391;SDS011;2210;51.938;8.488;2023-03-19T16:27:15;6.57;;;5.90;;
4391;SDS011;2210;51.938;8.488;2023-03-19T16:31:29;7.10;;;6.03;;
4391;SDS011;2210;51.938;8.488;2023-03-19T16:35:35;6.93;;;6.23;;
4391;SDS011;2210;51.938;8.488;2023-03-19T16:39:36;7.90;;;7.10;;
4391;SDS011;2210;51.938;8.488;2023-03-19T16:44:00;9.33;;;6.70;;
4391;SDS011;2210;51.938;8.488;2023-03-19T16:48:12;5.80;;;5.30;;
4391;SDS011;2210;51.938;8.488;2023-03-19T16:52:21;6.90;;;5.30;;
4391;SDS011;2210;51.938;8.488;2023-03-19T16:56:23;6.10;;;5.00;;
4391;SDS011;2210;51.938;8.488;2023-03-19T17:00:24;5.40;;;4.90;;
4391;SDS011;2210;51.938;8.488;2023-03-19T17:04:38;5.30;;;4.30;;
4391;SDS011;2210;51.938;8.488;2023-03-19T17:08:38;8.23;;;6.23;;
4391;SDS011;2210;51.938;8.488;2023-03-19T17:12:39;6.67;;;5.40;;
4391;SDS011;2210;51.938;8.488;2023-03-19T17:16:40;6.73;;;5.73;;
4391;SDS011;2210;51.938;8.488;2023-03-19T17:20:49;7.57;;;5.87;;
4391;SDS011;2210;51.938;8.488;2023-03-19T17:24:56;10.10;;;7.30;;
4391;SDS011;2210;51.938;8.488;2023-03-19T17:29:02;8.97;;;7.17;;
4391;SDS011;2210;51.938;8.488;2023-03-19T17:33:02;12.87;;;9.40;;
4391;SDS011;2210;51.938;8.488;2023-03-19T17:37:15;10.13;;;8.20;;
4391;SDS011;2210;51.938;8.488;2023-03-19T17:41:18;10.50;;;7.83;;
4391;SDS011;2210;51.938;8.488;2023-03-19T17:45:20;12.63;;;10.53;;
4391;SDS011;2210;51.938;8.488;2023-03-19T17:49:29;12.97;;;8.23;;
4391;SDS011;2210;51.938;8.488;2023-03-19T17:53:47;9.47;;;8.47;;
4391;SDS011;2210;51.938;8.488;2023-03-19T17:57:49;11.17;;;8.10;;
4391;SDS011;2210;51.938;8.488;2023-03-19T18:01:53;10.87;;;7.70;;
4391;SDS011;2210;51.938;8.488;2023-03-19T18:05:53;8.50;;;6.87;;
4391;SDS011;2210;51.938;8.488;2023-03-19T18:09:53;12.60;;;8.52;;
4391;SDS011;2210;51.938;8.488;2023-03-19T19:48:30;9.40;;;7.40;;
4391;SDS011;2210;51.938;8.488;2023-03-19T19:52:30;7.70;;;6.70;;
4391;SDS011;2210;51.938;8.488;2023-03-19T19:56:30;7.57;;;6.80;;
4391;SDS011;2210;51.938;8.488;2023-03-19T20:00:31;8.37;;;7.57;;
4391;SDS011;2210;51.938;8.488;2023-03-19T20:04:32;8.77;;;7.90;;
4391;SDS011;2210;51.938;8.488;2023-03-19T20:08:32;8.07;;;7.30;;
4391;SDS011;2210;51.938;8.488;2023-03-19T20:12:32;8.63;;;7.73;;
4391;SDS011;2210;51.938;8.488;2023-03-19T20:16:32;10.77;;;8.50;;
4391;SDS011;2210;51.938;8.488;2023-03-19T20:20:33;9.48;;;8.57;;
4391;SDS011;2210;51.938;8.488;2023-03-19T20:24:33;9.40;;;8.17;;
4391;SDS011;2210;51.938;8.488;2023-03-19T20:28:33;10.23;;;8.50;;
4391;SDS011;2210;51.938;8.488;2023-03-19T20:32:37;11.90;;;9.87;;
4391;SDS011;2210;51.938;8.488;2023-03-19T20:36:37;9.70;;;8.80;;
4391;SDS011;2210;51.938;8.488;2023-03-19T20:40:45;9.30;;;8.37;;
4391;SDS011;2210;51.938;8.488;2023-03-19T20:44:46;9.13;;;8.27;;
4391;SDS011;2210;51.938;8.488;2023-03-19T20:48:47;10.70;;;8.90;;
4391;SDS011;2210;51.938;8.488;2023-03-19T20:52:48;10.73;;;9.63;;
4391;SDS011;2210;51.938;8.488;2023-03-19T20:56:49;10.43;;;9.43;;
4391;SDS011;2210;51.938;8.488;2023-03-19T21:00:52;9.37;;;8.50;;
4391;SDS011;2210;51.938;8.488;2023-03-19T21:04:52;9.30;;;8.43;;
4391;SDS011;2210;51.938;8.488;2023-03-19T21:08:53;10.30;;;9.37;;
4391;SDS011;2210;51.938;8.488;2023-03-19T21:12:58;9.77;;;8.87;;
4391;SDS011;2210;51.938;8.488;2023-03-19T21:16:59;10.27;;;9.27;;
4391;SDS011;2210;51.938;8.488;2023-03-19T21:21:00;10.50;;;9.50;;
4391;SDS011;2210;51.938;8.488;2023-03-19T21:25:01;10.30;;;9.30;;
4391;SDS011;2210;51.938;8.488;2023-03-19T21:29:05;11.40;;;10.27;;
4391;SDS011;2210;51.938;8.488;2023-03-19T21:37:38;12.13;;;10.93;;
4391;SDS011;2210;51.938;8.488;2023-03-19T21:41:42;13.43;;;12.03;;
4391;SDS011;2210;51.938;8.488;2023-03-19T21:45:42;12.63;;;11.30;;
4391;SDS011;2210;51.938;8.488;2023-03-19T21:49:45;13.80;;;11.73;;
4391;SDS011;2210;51.938;8.488;2023-03-19T21:53:50;18.00;;;13.60;;
4391;SDS011;2210;51.938;8.488;2023-03-19T21:57:50;18.30;;;14.20;;
4391;SDS011;2210;51.938;8.488;2023-03-19T22:06:21;21.80;;;16.67;;
4391;SDS011;2210;51.938;8.488;2023-03-19T22:10:25;26.90;;;17.57;;
4391;SDS011;2210;51.938;8.488;2023-03-19T22:14:27;26.77;;;19.77;;
4391;SDS011;2210;51.938;8.488;2023-03-19T22:18:29;30.70;;;20.23;;
4391;SDS011;2210;51.938;8.488;2023-03-19T22:22:29;24.73;;;18.17;;
4391;SDS011;2210;51.938;8.488;2023-03-19T22:26:35;25.50;;;17.17;;
4391;SDS011;2210;51.938;8.488;2023-03-19T22:30:40;29.40;;;20.10;;
4391;SDS011;2210;51.938;8.488;2023-03-19T22:34:41;30.90;;;19.50;;
4391;SDS011;2210;51.938;8.488;2023-03-19T22:38:41;32.30;;;19.87;;
4391;SDS011;2210;51.938;8.488;2023-03-19T22:42:46;31.53;;;19.97;;
4391;SDS011;2210;51.938;8.488;2023-03-19T22:46:47;30.93;;;20.57;;
4391;SDS011;2210;51.938;8.488;2023-03-19T22:50:48;25.70;;;18.83;;
4391;SDS011;2210;51.938;8.488;2023-03-19T22:54:51;27.50;;;18.33;;
4391;SDS011;2210;51.938;8.488;2023-03-19T22:58:52;26.33;;;18.90;;
4391;SDS011;2210;51.938;8.488;2023-03-19T23:02:56;23.00;;;17.67;;
4391;SDS011;2210;51.938;8.488;2023-03-19T23:06:58;22.60;;;16.77;;
4391;SDS011;2210;51.938;8.488;2023-03-19T23:10:59;24.23;;;17.80;;
4391;SDS011;2210;51.938;8.488;2023-03-19T23:15:00;22.37;;;16.77;;
4391;SDS011;2210;51.938;8.488;2023-03-19T23:19:00;26.33;;;19.07;;
4391;SDS011;2210;51.938;8.488;2023-03-19T23:23:01;24.00;;;17.00;;
4391;SDS011;2210;51.938;8.488;2023-03-19T23:27:01;28.20;;;17.37;;
4391;SDS011;2210;51.938;8.488;2023-03-19T23:31:02;24.97;;;17.23;;
4391;SDS011;2210;51.938;8.488;2023-03-19T23:35:13;26.00;;;17.20;;
4391;SDS011;2210;51.938;8.488;2023-03-19T23:39:14;23.07;;;16.77;;
4391;SDS011;2210;51.938;8.488;2023-03-19T23:43:16;25.00;;;17.67;;
4391;SDS011;2210;51.938;8.488;2023-03-19T23:47:21;25.37;;;17.20;;
4391;SDS011;2210;51.938;8.488;2023-03-19T23:51:22;27.33;;;18.80;;
4391;SDS011;2210;51.938;8.488;2023-03-19T23:55:22;26.90;;;18.50;;
4391;SDS011;2210;51.938;8.488;2023-03-19T23:59:23;27.00;;;19.40;;
